createdAt,value
2023-04-06T00:00:06.078Z,9.48
2023-04-06T00:04:11.498Z,8.15
2023-04-06T00:08:13.555Z,11.27
2023-04-06T00:12:15.605Z,6.63
2023-04-06T00:16:18.051Z,7.15
2023-04-06T00:20:20.398Z,9.45
2023-04-06T00:24:22.446Z,8.93
2023-04-06T00:28:28.071Z,10.63
2023-04-06T00:32:30.146Z,8.15
2023-04-06T00:36:32.341Z,8.50
2023-04-06T00:40:35.818Z,8.15
2023-04-06T00:44:37.991Z,9.23
2023-04-06T00:48:41.678Z,8.85
2023-04-06T00:52:43.804Z,7.68
2023-04-06T00:56:46.318Z,7.30
2023-04-06T01:00:48.651Z,6.97
2023-04-06T01:04:55.175Z,9.35
2023-04-06T01:09:10.894Z,8.70
2023-04-06T01:13:13.595Z,8.43
2023-04-06T01:17:26.804Z,6.18
2023-04-06T01:21:29.362Z,9.18
2023-04-06T01:25:54.252Z,9.57
2023-04-06T01:29:56.957Z,8.23
2023-04-06T01:34:14.973Z,8.85
2023-04-06T01:38:17.252Z,7.85
2023-04-06T01:42:20.913Z,7.05
2023-04-06T01:46:24.098Z,7.95
2023-04-06T01:50:27.665Z,6.75
2023-04-06T01:54:29.914Z,7.10
2023-04-06T01:58:43.315Z,6.20
2023-04-06T02:02:47.711Z,7.22
2023-04-06T02:06:56.390Z,8.18
2023-04-06T02:11:00.885Z,6.70
2023-04-06T02:15:09.147Z,6.43
2023-04-06T02:19:11.654Z,5.60
2023-04-06T02:23:13.910Z,6.32
2023-04-06T02:27:16.015Z,6.22
2023-04-06T02:31:22.082Z,6.10
2023-04-06T02:35:26.671Z,6.93
2023-04-06T02:39:30.891Z,6.72
2023-04-06T02:43:34.074Z,6.05
2023-04-06T02:47:50.658Z,6.27
2023-04-06T02:51:53.178Z,8.15
2023-04-06T02:56:00.412Z,7.50
2023-04-06T03:00:12.820Z,6.63
2023-04-06T03:04:16.703Z,10.20
2023-04-06T03:08:19.091Z,7.38
2023-04-06T03:12:21.916Z,6.68
2023-04-06T03:16:44.531Z,8.35
2023-04-06T03:20:49.001Z,5.60
2023-04-06T03:24:52.621Z,7.70
2023-04-06T03:28:55.232Z,5.22
2023-04-06T03:33:02.228Z,6.32
2023-04-06T03:37:10.652Z,6.53
2023-04-06T03:41:17.709Z,5.18
2023-04-06T03:45:27.375Z,6.45
2023-04-06T03:49:29.468Z,6.20
2023-04-06T03:53:32.934Z,5.80
2023-04-06T03:57:35.004Z,6.90
2023-04-06T04:01:37.125Z,8.90
2023-04-06T04:05:39.135Z,6.72
2023-04-06T04:09:41.289Z,7.10
2023-04-06T04:13:43.336Z,6.57
2023-04-06T04:17:47.880Z,7.95
2023-04-06T04:21:50.089Z,6.78
2023-04-06T04:25:57.039Z,6.57
2023-04-06T04:29:59.146Z,6.05
2023-04-06T04:34:02.723Z,6.90
2023-04-06T04:38:08.526Z,7.03
2023-04-06T04:42:14.322Z,9.48
2023-04-06T04:46:21.690Z,8.02
2023-04-06T04:50:23.822Z,9.50
2023-04-06T04:54:30.466Z,6.90
2023-04-06T04:58:33.744Z,8.05
2023-04-06T05:02:36.555Z,7.60
2023-04-06T05:07:05.299Z,7.60
2023-04-06T05:11:07.902Z,10.40
2023-04-06T05:15:14.101Z,7.70
2023-04-06T05:19:17.058Z,6.43
2023-04-06T05:23:21.079Z,7.85
2023-04-06T05:27:24.955Z,7.55
2023-04-06T05:31:27.990Z,7.85
2023-04-06T05:35:30.309Z,6.65
2023-04-06T05:39:36.514Z,6.40
2023-04-06T05:43:38.671Z,8.30
2023-04-06T05:47:40.921Z,6.97
2023-04-06T05:51:54.397Z,5.65
2023-04-06T05:55:57.299Z,7.85
2023-04-06T05:59:59.278Z,8.52
2023-04-06T06:04:14.401Z,7.72
2023-04-06T06:08:17.184Z,8.43
2023-04-06T06:12:19.788Z,8.27
2023-04-06T06:16:23.401Z,8.52
2023-04-06T06:20:25.939Z,8.95
2023-04-06T06:24:30.186Z,10.30
2023-04-06T06:28:34.827Z,7.38
2023-04-06T06:32:37.126Z,8.73
2023-04-06T06:36:39.347Z,10.02
2023-04-06T06:40:44.081Z,11.73
2023-04-06T06:44:46.364Z,10.48
2023-04-06T06:48:48.521Z,9.60
2023-04-06T06:52:50.669Z,10.20
2023-04-06T06:56:52.754Z,10.02
2023-04-06T07:00:58.939Z,8.10
2023-04-06T07:05:03.113Z,11.63
2023-04-06T07:09:09.183Z,8.48
2023-04-06T07:13:11.368Z,8.75
2023-04-06T07:17:13.503Z,9.25
2023-04-06T07:21:15.634Z,7.60
2023-04-06T07:25:17.830Z,10.20
2023-04-06T07:29:19.882Z,8.48
2023-04-06T07:33:22.064Z,9.32
2023-04-06T07:37:24.336Z,14.02
2023-04-06T07:41:26.566Z,11.32
2023-04-06T07:45:29.379Z,12.13
2023-04-06T07:49:33.811Z,9.48
2023-04-06T07:53:37.289Z,9.23
2023-04-06T07:57:39.306Z,9.38
2023-04-06T08:01:41.271Z,10.30
2023-04-06T08:05:43.518Z,9.93
2023-04-06T08:09:45.604Z,11.13
2023-04-06T08:13:47.582Z,12.18
2023-04-06T08:17:49.642Z,11.35
2023-04-06T08:21:52.292Z,11.55
2023-04-06T08:25:55.269Z,9.75
2023-04-06T08:29:57.285Z,12.07
2023-04-06T08:33:59.255Z,11.15
2023-04-06T08:38:01.274Z,14.40
2023-04-06T08:42:04.053Z,11.80
2023-04-06T08:46:06.461Z,10.40
2023-04-06T08:50:09.426Z,12.50
2023-04-06T08:54:11.463Z,10.95
2023-04-06T08:58:17.353Z,11.32
2023-04-06T09:02:27.558Z,11.35
2023-04-06T09:06:29.620Z,11.20
2023-04-06T09:10:33.167Z,14.23
2023-04-06T09:14:37.367Z,16.75
2023-04-06T09:18:39.358Z,18.83
2023-04-06T09:22:42.883Z,10.60
2023-04-06T09:26:47.440Z,14.25
2023-04-06T09:30:50.508Z,13.18
2023-04-06T09:34:52.481Z,10.43
2023-04-06T09:39:04.508Z,12.40
2023-04-06T09:43:07.989Z,11.95
2023-04-06T09:47:10.373Z,10.77
2023-04-06T09:51:14.794Z,10.85
2023-04-06T09:55:44.222Z,11.88
2023-04-06T10:00:10.350Z,9.45
2023-04-06T10:04:40.059Z,11.48
2023-04-06T10:08:46.772Z,12.32
2023-04-06T10:12:49.656Z,10.98
2023-04-06T10:16:51.893Z,10.05
2023-04-06T10:21:09.395Z,11.18
2023-04-06T10:25:11.484Z,10.68
2023-04-06T10:29:13.489Z,11.30
2023-04-06T10:33:17.310Z,11.30
2023-04-06T10:37:21.437Z,10.73
2023-04-06T10:41:23.555Z,10.80
2023-04-06T10:45:27.369Z,13.20
2023-04-06T10:49:29.462Z,13.15
2023-04-06T10:53:35.071Z,13.13
2023-04-06T10:57:37.874Z,11.75
2023-04-06T11:01:46.154Z,11.57
2023-04-06T11:05:49.826Z,11.18
2023-04-06T11:10:09.292Z,9.88
2023-04-06T11:14:15.227Z,8.88
2023-04-06T11:18:18.496Z,9.85
2023-04-06T11:22:20.827Z,8.73
2023-04-06T11:26:22.849Z,12.40
2023-04-06T11:30:24.894Z,8.52
2023-04-06T11:34:30.255Z,10.05
2023-04-06T11:38:32.753Z,9.77
2023-04-06T11:42:35.603Z,7.55
2023-04-06T11:46:37.626Z,8.00
2023-04-06T11:50:39.726Z,8.20
2023-04-06T11:54:41.961Z,8.60
2023-04-06T11:58:43.974Z,11.27
2023-04-06T12:02:50.112Z,9.63
2023-04-06T12:06:52.301Z,7.97
2023-04-06T12:10:54.288Z,10.07
2023-04-06T12:14:57.442Z,8.10
2023-04-06T12:18:59.636Z,11.88
2023-04-06T12:23:01.655Z,9.68
2023-04-06T12:27:09.910Z,8.80
2023-04-06T12:31:17.434Z,11.70
2023-04-06T12:35:19.742Z,10.30
2023-04-06T12:39:22.947Z,9.50
2023-04-06T12:43:24.916Z,7.25
2023-04-06T12:47:27.514Z,8.38
2023-04-06T12:51:30.328Z,8.65
2023-04-06T12:55:35.026Z,6.70
2023-04-06T12:59:38.141Z,9.60
2023-04-06T13:03:41.307Z,9.18
2023-04-06T13:07:43.278Z,10.55
2023-04-06T13:11:45.623Z,9.02
2023-04-06T13:15:47.650Z,13.10
2023-04-06T13:19:49.727Z,16.17
2023-04-06T13:23:51.908Z,10.00
2023-04-06T13:27:53.875Z,8.20
2023-04-06T13:31:56.276Z,7.63
2023-04-06T13:35:59.683Z,8.88
2023-04-06T13:40:03.618Z,11.02
2023-04-06T13:44:05.620Z,7.38
2023-04-06T13:48:07.783Z,8.65
2023-04-06T13:52:11.264Z,10.68
2023-04-06T13:56:13.376Z,9.63
2023-04-06T14:00:15.858Z,9.77
2023-04-06T14:04:17.881Z,9.77
2023-04-06T14:08:19.937Z,9.85
2023-04-06T14:12:21.903Z,10.40
2023-04-06T14:16:24.879Z,9.27
2023-04-06T14:20:27.255Z,8.85
2023-04-06T14:24:29.319Z,10.48
2023-04-06T14:28:32.175Z,9.85
2023-04-06T14:32:34.254Z,7.60
2023-04-06T14:36:38.193Z,8.45
2023-04-06T14:40:40.398Z,8.45
2023-04-06T14:44:45.295Z,9.13
2023-04-06T14:48:48.172Z,8.57
2023-04-06T14:52:50.697Z,9.15
2023-04-06T14:56:52.762Z,8.88
2023-04-06T15:00:59.613Z,9.50
2023-04-06T15:05:01.768Z,8.82
2023-04-06T15:09:04.114Z,8.88
2023-04-06T15:13:06.189Z,7.82
2023-04-06T15:17:08.203Z,11.95
2023-04-06T15:21:10.478Z,8.82
2023-04-06T15:25:12.642Z,8.82
2023-04-06T15:29:14.599Z,11.52
2023-04-06T15:33:16.999Z,7.63
2023-04-06T15:37:19.033Z,8.55
2023-04-06T15:41:21.246Z,6.82
2023-04-06T15:45:23.244Z,9.60
2023-04-06T15:49:25.260Z,7.95
2023-04-06T15:53:27.795Z,8.57
2023-04-06T15:57:30.086Z,7.50
2023-04-06T16:01:32.170Z,6.25
2023-04-06T16:05:35.018Z,6.95
2023-04-06T16:09:46.084Z,7.43
2023-04-06T16:13:54.657Z,5.40
2023-04-06T16:17:57.590Z,5.85
2023-04-06T16:21:59.631Z,7.18
2023-04-06T16:26:01.872Z,8.40
2023-04-06T16:30:04.853Z,6.38
2023-04-06T16:34:07.124Z,5.78
2023-04-06T16:38:09.185Z,7.22
2023-04-06T16:42:11.494Z,5.20
2023-04-06T16:46:13.817Z,7.78
2023-04-06T16:50:16.307Z,6.45
2023-04-06T16:54:18.307Z,4.95
2023-04-06T16:58:20.415Z,5.03
2023-04-06T17:02:24.082Z,7.90
2023-04-06T17:06:27.596Z,5.68
2023-04-06T17:10:33.872Z,6.72
2023-04-06T17:14:43.411Z,6.55
2023-04-06T17:18:45.524Z,6.35
2023-04-06T17:22:49.361Z,8.98
2023-04-06T17:26:51.358Z,5.85
2023-04-06T17:30:53.499Z,5.85
2023-04-06T17:34:55.919Z,5.05
2023-04-06T17:38:57.904Z,5.72
2023-04-06T17:42:59.854Z,7.53
2023-04-06T17:47:01.818Z,4.28
2023-04-06T17:51:04.023Z,4.30
2023-04-06T17:55:06.330Z,6.60
2023-04-06T17:59:11.269Z,5.35
2023-04-06T18:03:13.382Z,4.72
2023-04-06T18:07:15.424Z,5.75
2023-04-06T18:11:18.675Z,6.97
2023-04-06T18:15:20.776Z,4.45
2023-04-06T18:19:22.752Z,5.13
2023-04-06T18:23:24.834Z,5.00
2023-04-06T18:27:27.545Z,4.07
2023-04-06T18:31:30.653Z,4.43
2023-04-06T18:35:32.651Z,5.65
2023-04-06T18:39:35.671Z,4.97
2023-04-06T18:43:37.690Z,4.78
2023-04-06T18:47:39.706Z,6.72
2023-04-06T18:51:42.891Z,5.32
2023-04-06T18:55:45.320Z,6.55
2023-04-06T18:59:47.280Z,8.02
2023-04-06T19:03:49.348Z,9.10
2023-04-06T19:07:52.588Z,8.32
2023-04-06T19:11:54.804Z,6.70
2023-04-06T19:15:56.775Z,6.63
2023-04-06T19:19:59.024Z,5.30
2023-04-06T19:24:01.329Z,6.38
2023-04-06T19:28:03.377Z,6.20
2023-04-06T19:32:08.111Z,6.25
2023-04-06T19:36:10.398Z,7.18
2023-04-06T19:40:12.477Z,5.63
2023-04-06T19:44:14.542Z,6.30
2023-04-06T19:48:16.632Z,6.53
2023-04-06T19:52:19.618Z,6.05
2023-04-06T19:56:21.670Z,7.05
2023-04-06T20:00:23.821Z,5.63
2023-04-06T20:04:26.393Z,5.95
2023-04-06T20:08:29.792Z,6.50
2023-04-06T20:12:31.888Z,7.18
2023-04-06T20:16:33.892Z,6.90
2023-04-06T20:20:36.102Z,5.72
2023-04-06T20:24:38.089Z,5.68
2023-04-06T20:28:40.275Z,5.80
2023-04-06T20:32:42.451Z,6.20
2023-04-06T20:36:45.204Z,6.28
2023-04-06T20:40:47.671Z,5.40
2023-04-06T20:44:50.800Z,5.68
2023-04-06T20:48:52.927Z,5.18
2023-04-06T20:52:54.915Z,5.93
2023-04-06T20:56:59.838Z,5.05
2023-04-06T21:01:02.192Z,6.55
2023-04-06T21:05:04.425Z,7.97
2023-04-06T21:09:06.470Z,7.60
2023-04-06T21:13:08.701Z,8.38
2023-04-06T21:17:11.572Z,8.45
2023-04-06T21:21:13.763Z,7.53
2023-04-06T21:25:15.785Z,7.55
2023-04-06T21:29:17.995Z,7.13
2023-04-06T21:33:20.469Z,7.47
2023-04-06T21:37:22.513Z,7.70
2023-04-06T21:41:24.548Z,9.20
2023-04-06T21:45:26.531Z,7.22
2023-04-06T21:49:28.514Z,8.23
2023-04-06T21:53:30.583Z,6.72
2023-04-06T21:57:32.587Z,9.25
2023-04-06T22:01:34.652Z,8.98
2023-04-06T22:05:38.331Z,8.13
2023-04-06T22:09:40.350Z,9.65
2023-04-06T22:13:42.368Z,10.80
2023-04-06T22:17:44.370Z,8.90
2023-04-06T22:21:46.429Z,9.85
2023-04-06T22:25:48.852Z,10.13
2023-04-06T22:29:50.877Z,9.18
2023-04-06T22:33:52.975Z,10.18
2023-04-06T22:37:55.255Z,10.18
2023-04-06T22:41:57.392Z,9.45
2023-04-06T22:45:59.389Z,9.93
2023-04-06T22:50:01.929Z,9.35
2023-04-06T22:54:03.998Z,10.98
2023-04-06T22:58:06.387Z,11.35
2023-04-06T23:02:08.709Z,10.85
2023-04-06T23:06:11.042Z,10.93
2023-04-06T23:10:13.133Z,10.82
2023-04-06T23:14:16.056Z,10.25
2023-04-06T23:18:18.163Z,10.90
2023-04-06T23:22:20.312Z,10.70
2023-04-06T23:26:24.316Z,10.45
2023-04-06T23:30:26.350Z,12.68
2023-04-06T23:34:28.329Z,12.05
2023-04-06T23:38:30.333Z,12.65
2023-04-06T23:42:32.559Z,12.43
2023-04-06T23:46:34.641Z,14.13
2023-04-06T23:50:37.524Z,13.07
2023-04-06T23:54:39.514Z,12.15
2023-04-06T23:58:41.608Z,11.85
